sensor_id;sensor_type;location;lat;lon;timestamp;P1;durP1;ratioP1;P2;durP2;ratioP2
22764;SDS011;11549;50.852;3.816;2022-10-16T00:01:24;4.45;;;1.40;;
22764;SDS011;11549;50.852;3.816;2022-10-16T00:03:54;2.83;;;1.10;;
22764;SDS011;11549;50.852;3.816;2022-10-16T00:06:23;2.25;;;1.13;;
22764;SDS011;11549;50.852;3.816;2022-10-16T00:08:52;2.28;;;1.00;;
22764;SDS011;11549;50.852;3.816;2022-10-16T00:11:21;3.40;;;1.10;;
22764;SDS011;11549;50.852;3.816;2022-10-16T00:13:54;3.05;;;1.20;;
22764;SDS011;11549;50.852;3.816;2022-10-16T00:16:24;2.63;;;1.05;;
22764;SDS011;11549;50.852;3.816;2022-10-16T00:18:53;3.60;;;1.30;;
22764;SDS011;11549;50.852;3.816;2022-10-16T00:21:22;4.18;;;1.30;;
22764;SDS011;11549;50.852;3.816;2022-10-16T00:23:54;5.63;;;1.30;;
22764;SDS011;11549;50.852;3.816;2022-10-16T00:26:25;4.93;;;1.25;;
22764;SDS011;11549;50.852;3.816;2022-10-16T00:28:57;2.78;;;1.13;;
22764;SDS011;11549;50.852;3.816;2022-10-16T00:31:25;3.40;;;1.30;;
22764;SDS011;11549;50.852;3.816;2022-10-16T00:33:54;2.33;;;1.02;;
22764;SDS011;11549;50.852;3.816;2022-10-16T00:36:24;4.60;;;1.30;;
22764;SDS011;11549;50.852;3.816;2022-10-16T00:38:53;3.38;;;1.13;;
22764;SDS011;11549;50.852;3.816;2022-10-16T00:41:23;4.78;;;1.20;;
22764;SDS011;11549;50.852;3.816;2022-10-16T00:43:53;4.22;;;1.20;;
22764;SDS011;11549;50.852;3.816;2022-10-16T00:46:25;2.85;;;1.10;;
22764;SDS011;11549;50.852;3.816;2022-10-16T00:48:57;3.58;;;1.45;;
22764;SDS011;11549;50.852;3.816;2022-10-16T00:51:30;2.83;;;1.30;;
22764;SDS011;11549;50.852;3.816;2022-10-16T00:54:01;2.75;;;1.27;;
22764;SDS011;11549;50.852;3.816;2022-10-16T00:56:31;4.47;;;1.40;;
22764;SDS011;11549;50.852;3.816;2022-10-16T00:59:01;3.75;;;1.20;;
22764;SDS011;11549;50.852;3.816;2022-10-16T01:01:37;2.42;;;1.30;;
22764;SDS011;11549;50.852;3.816;2022-10-16T01:04:05;3.80;;;1.50;;
22764;SDS011;11549;50.852;3.816;2022-10-16T01:06:36;2.67;;;1.45;;
22764;SDS011;11549;50.852;3.816;2022-10-16T01:09:13;3.00;;;1.40;;
22764;SDS011;11549;50.852;3.816;2022-10-16T01:11:49;2.50;;;1.45;;
22764;SDS011;11549;50.852;3.816;2022-10-16T01:14:27;5.15;;;1.23;;
22764;SDS011;11549;50.852;3.816;2022-10-16T01:17:04;5.05;;;1.30;;
22764;SDS011;11549;50.852;3.816;2022-10-16T01:19:50;3.83;;;1.40;;
22764;SDS011;11549;50.852;3.816;2022-10-16T01:22:38;3.40;;;1.58;;
22764;SDS011;11549;50.852;3.816;2022-10-16T01:25:17;3.85;;;1.38;;
22764;SDS011;11549;50.852;3.816;2022-10-16T01:28:05;4.72;;;1.20;;
22764;SDS011;11549;50.852;3.816;2022-10-16T01:30:39;3.47;;;1.50;;
22764;SDS011;11549;50.852;3.816;2022-10-16T01:33:10;2.55;;;1.40;;
22764;SDS011;11549;50.852;3.816;2022-10-16T01:35:45;3.03;;;1.40;;
22764;SDS011;11549;50.852;3.816;2022-10-16T01:38:16;3.55;;;1.50;;
22764;SDS011;11549;50.852;3.816;2022-10-16T01:40:50;4.55;;;1.60;;
22764;SDS011;11549;50.852;3.816;2022-10-16T01:43:24;4.60;;;1.50;;
22764;SDS011;11549;50.852;3.816;2022-10-16T01:48:25;3.40;;;1.42;;
22764;SDS011;11549;50.852;3.816;2022-10-16T01:50:54;5.20;;;1.70;;
22764;SDS011;11549;50.852;3.816;2022-10-16T01:53:26;3.05;;;1.65;;
22764;SDS011;11549;50.852;3.816;2022-10-16T01:55:55;5.13;;;1.90;;
22764;SDS011;11549;50.852;3.816;2022-10-16T01:58:27;3.85;;;1.90;;
22764;SDS011;11549;50.852;3.816;2022-10-16T02:01:01;4.18;;;1.90;;
22764;SDS011;11549;50.852;3.816;2022-10-16T02:03:30;3.83;;;1.98;;
22764;SDS011;11549;50.852;3.816;2022-10-16T02:06:00;4.78;;;1.95;;
22764;SDS011;11549;50.852;3.816;2022-10-16T02:08:29;4.53;;;1.90;;
22764;SDS011;11549;50.852;3.816;2022-10-16T02:10:59;4.05;;;1.80;;
22764;SDS011;11549;50.852;3.816;2022-10-16T02:13:31;4.25;;;1.80;;
22764;SDS011;11549;50.852;3.816;2022-10-16T02:16:03;4.63;;;1.70;;
22764;SDS011;11549;50.852;3.816;2022-10-16T02:18:32;7.38;;;2.13;;
22764;SDS011;11549;50.852;3.816;2022-10-16T02:21:01;5.05;;;2.03;;
22764;SDS011;11549;50.852;3.816;2022-10-16T02:23:35;5.47;;;2.30;;
22764;SDS011;11549;50.852;3.816;2022-10-16T02:26:25;4.13;;;2.03;;
22764;SDS011;11549;50.852;3.816;2022-10-16T02:29:00;4.65;;;2.10;;
22764;SDS011;11549;50.852;3.816;2022-10-16T02:31:32;6.30;;;1.98;;
22764;SDS011;11549;50.852;3.816;2022-10-16T02:34:06;5.32;;;2.20;;
22764;SDS011;11549;50.852;3.816;2022-10-16T02:36:37;6.20;;;2.00;;
22764;SDS011;11549;50.852;3.816;2022-10-16T02:39:08;6.00;;;2.55;;
22764;SDS011;11549;50.852;3.816;2022-10-16T02:41:38;5.88;;;2.47;;
22764;SDS011;11549;50.852;3.816;2022-10-16T02:44:07;8.85;;;2.63;;
22764;SDS011;11549;50.852;3.816;2022-10-16T02:46:36;5.78;;;2.40;;
22764;SDS011;11549;50.852;3.816;2022-10-16T02:49:04;6.07;;;2.47;;
22764;SDS011;11549;50.852;3.816;2022-10-16T02:51:32;7.05;;;2.65;;
22764;SDS011;11549;50.852;3.816;2022-10-16T02:54:01;9.40;;;2.88;;
22764;SDS011;11549;50.852;3.816;2022-10-16T02:56:29;5.95;;;2.63;;
22764;SDS011;11549;50.852;3.816;2022-10-16T02:58:57;5.22;;;2.30;;
22764;SDS011;11549;50.852;3.816;2022-10-16T03:01:27;5.97;;;2.40;;
22764;SDS011;11549;50.852;3.816;2022-10-16T03:03:56;6.07;;;2.70;;
22764;SDS011;11549;50.852;3.816;2022-10-16T03:06:24;4.95;;;2.42;;
22764;SDS011;11549;50.852;3.816;2022-10-16T03:08:52;5.47;;;2.70;;
22764;SDS011;11549;50.852;3.816;2022-10-16T03:11:20;5.55;;;2.58;;
22764;SDS011;11549;50.852;3.816;2022-10-16T03:13:49;6.35;;;2.60;;
22764;SDS011;11549;50.852;3.816;2022-10-16T03:16:17;5.80;;;2.63;;
22764;SDS011;11549;50.852;3.816;2022-10-16T03:18:48;6.63;;;2.67;;
22764;SDS011;11549;50.852;3.816;2022-10-16T03:21:17;5.90;;;2.55;;
22764;SDS011;11549;50.852;3.816;2022-10-16T03:23:45;5.68;;;2.85;;
22764;SDS011;11549;50.852;3.816;2022-10-16T03:26:14;3.95;;;2.47;;
22764;SDS011;11549;50.852;3.816;2022-10-16T03:28:42;5.75;;;2.47;;
22764;SDS011;11549;50.852;3.816;2022-10-16T03:31:10;6.55;;;2.60;;
22764;SDS011;11549;50.852;3.816;2022-10-16T03:33:38;5.40;;;2.95;;
22764;SDS011;11549;50.852;3.816;2022-10-16T03:36:08;5.88;;;2.80;;
22764;SDS011;11549;50.852;3.816;2022-10-16T03:38:36;4.57;;;2.88;;
22764;SDS011;11549;50.852;3.816;2022-10-16T03:41:04;5.47;;;2.85;;
22764;SDS011;11549;50.852;3.816;2022-10-16T03:43:34;7.22;;;2.80;;
22764;SDS011;11549;50.852;3.816;2022-10-16T03:46:02;6.07;;;2.83;;
22764;SDS011;11549;50.852;3.816;2022-10-16T03:48:30;6.43;;;3.00;;
22764;SDS011;11549;50.852;3.816;2022-10-16T03:50:59;6.43;;;2.70;;
22764;SDS011;11549;50.852;3.816;2022-10-16T03:53:29;6.32;;;3.13;;
22764;SDS011;11549;50.852;3.816;2022-10-16T03:55:57;5.47;;;2.92;;
22764;SDS011;11549;50.852;3.816;2022-10-16T03:58:25;7.50;;;2.67;;
22764;SDS011;11549;50.852;3.816;2022-10-16T04:00:54;5.95;;;2.50;;
22764;SDS011;11549;50.852;3.816;2022-10-16T04:03:22;5.82;;;2.47;;
22764;SDS011;11549;50.852;3.816;2022-10-16T04:05:50;5.00;;;2.60;;
22764;SDS011;11549;50.852;3.816;2022-10-16T04:08:19;4.97;;;2.28;;
22764;SDS011;11549;50.852;3.816;2022-10-16T04:10:48;4.68;;;2.20;;
22764;SDS011;11549;50.852;3.816;2022-10-16T04:13:17;5.15;;;2.45;;
22764;SDS011;11549;50.852;3.816;2022-10-16T04:15:50;6.68;;;2.67;;
22764;SDS011;11549;50.852;3.816;2022-10-16T04:18:18;6.57;;;2.58;;
22764;SDS011;11549;50.852;3.816;2022-10-16T04:20:47;4.70;;;2.40;;
22764;SDS011;11549;50.852;3.816;2022-10-16T04:23:15;6.53;;;2.20;;
22764;SDS011;11549;50.852;3.816;2022-10-16T04:25:43;6.78;;;2.65;;
22764;SDS011;11549;50.852;3.816;2022-10-16T04:28:13;8.00;;;2.95;;
22764;SDS011;11549;50.852;3.816;2022-10-16T04:30:41;5.53;;;2.30;;
22764;SDS011;11549;50.852;3.816;2022-10-16T04:33:09;5.82;;;2.47;;
22764;SDS011;11549;50.852;3.816;2022-10-16T04:35:39;5.90;;;2.17;;
22764;SDS011;11549;50.852;3.816;2022-10-16T04:38:07;4.90;;;2.40;;
22764;SDS011;11549;50.852;3.816;2022-10-16T04:40:36;6.28;;;2.40;;
22764;SDS011;11549;50.852;3.816;2022-10-16T04:43:04;7.05;;;2.53;;
22764;SDS011;11549;50.852;3.816;2022-10-16T04:45:35;6.00;;;2.45;;
22764;SDS011;11549;50.852;3.816;2022-10-16T04:48:03;6.20;;;2.30;;
22764;SDS011;11549;50.852;3.816;2022-10-16T04:50:31;5.88;;;2.35;;
22764;SDS011;11549;50.852;3.816;2022-10-16T04:52:59;7.07;;;2.70;;
22764;SDS011;11549;50.852;3.816;2022-10-16T04:55:28;5.50;;;2.53;;
22764;SDS011;11549;50.852;3.816;2022-10-16T04:57:56;5.38;;;2.60;;
22764;SDS011;11549;50.852;3.816;2022-10-16T05:00:24;7.40;;;2.75;;
22764;SDS011;11549;50.852;3.816;2022-10-16T05:02:54;5.53;;;2.50;;
22764;SDS011;11549;50.852;3.816;2022-10-16T05:05:23;7.13;;;2.72;;
22764;SDS011;11549;50.852;3.816;2022-10-16T05:07:51;5.00;;;2.40;;
22764;SDS011;11549;50.852;3.816;2022-10-16T05:10:20;6.57;;;2.80;;
22764;SDS011;11549;50.852;3.816;2022-10-16T05:12:48;4.97;;;2.53;;
22764;SDS011;11549;50.852;3.816;2022-10-16T05:15:17;7.20;;;2.65;;
22764;SDS011;11549;50.852;3.816;2022-10-16T05:17:46;8.77;;;2.55;;
22764;SDS011;11549;50.852;3.816;2022-10-16T05:20:15;10.68;;;2.88;;
22764;SDS011;11549;50.852;3.816;2022-10-16T05:22:43;5.07;;;2.50;;
22764;SDS011;11549;50.852;3.816;2022-10-16T05:25:12;8.25;;;2.90;;
22764;SDS011;11549;50.852;3.816;2022-10-16T05:27:40;8.77;;;2.80;;
22764;SDS011;11549;50.852;3.816;2022-10-16T05:30:08;6.93;;;2.78;;
22764;SDS011;11549;50.852;3.816;2022-10-16T05:32:38;7.20;;;2.85;;
22764;SDS011;11549;50.852;3.816;2022-10-16T05:35:06;7.95;;;2.45;;
22764;SDS011;11549;50.852;3.816;2022-10-16T05:37:39;6.15;;;2.60;;
22764;SDS011;11549;50.852;3.816;2022-10-16T05:40:08;9.50;;;2.78;;
22764;SDS011;11549;50.852;3.816;2022-10-16T05:42:37;6.57;;;2.50;;
22764;SDS011;11549;50.852;3.816;2022-10-16T05:45:06;6.70;;;2.70;;
22764;SDS011;11549;50.852;3.816;2022-10-16T05:47:36;9.05;;;2.50;;
22764;SDS011;11549;50.852;3.816;2022-10-16T05:50:05;6.20;;;2.60;;
22764;SDS011;11549;50.852;3.816;2022-10-16T05:52:34;7.00;;;2.78;;
22764;SDS011;11549;50.852;3.816;2022-10-16T05:55:04;6.28;;;2.70;;
22764;SDS011;11549;50.852;3.816;2022-10-16T05:57:32;6.72;;;2.85;;
22764;SDS011;11549;50.852;3.816;2022-10-16T06:00:01;6.63;;;2.78;;
22764;SDS011;11549;50.852;3.816;2022-10-16T06:02:29;8.13;;;3.00;;
22764;SDS011;11549;50.852;3.816;2022-10-16T06:04:58;7.57;;;3.40;;
22764;SDS011;11549;50.852;3.816;2022-10-16T06:07:26;5.45;;;2.83;;
22764;SDS011;11549;50.852;3.816;2022-10-16T06:09:55;7.30;;;2.85;;
22764;SDS011;11549;50.852;3.816;2022-10-16T06:12:25;6.72;;;2.97;;
22764;SDS011;11549;50.852;3.816;2022-10-16T06:14:54;7.93;;;2.97;;
22764;SDS011;11549;50.852;3.816;2022-10-16T06:17:22;8.32;;;2.90;;
22764;SDS011;11549;50.852;3.816;2022-10-16T06:19:51;6.97;;;2.90;;
22764;SDS011;11549;50.852;3.816;2022-10-16T06:22:19;5.75;;;2.83;;
22764;SDS011;11549;50.852;3.816;2022-10-16T06:24:48;9.13;;;2.95;;
22764;SDS011;11549;50.852;3.816;2022-10-16T06:27:16;9.00;;;3.20;;
22764;SDS011;11549;50.852;3.816;2022-10-16T06:29:46;7.75;;;3.00;;
22764;SDS011;11549;50.852;3.816;2022-10-16T06:32:14;5.53;;;2.80;;
22764;SDS011;11549;50.852;3.816;2022-10-16T06:34:43;9.10;;;3.13;;
22764;SDS011;11549;50.852;3.816;2022-10-16T06:37:11;7.70;;;2.97;;
22764;SDS011;11549;50.852;3.816;2022-10-16T06:39:40;6.32;;;3.03;;
22764;SDS011;11549;50.852;3.816;2022-10-16T06:42:08;6.80;;;3.05;;
22764;SDS011;11549;50.852;3.816;2022-10-16T06:44:36;7.85;;;2.78;;
22764;SDS011;11549;50.852;3.816;2022-10-16T06:47:06;5.20;;;2.83;;
22764;SDS011;11549;50.852;3.816;2022-10-16T06:49:34;6.43;;;3.00;;
22764;SDS011;11549;50.852;3.816;2022-10-16T06:52:02;6.35;;;3.20;;
22764;SDS011;11549;50.852;3.816;2022-10-16T06:54:31;8.18;;;3.03;;
22764;SDS011;11549;50.852;3.816;2022-10-16T06:57:07;7.40;;;2.70;;
22764;SDS011;11549;50.852;3.816;2022-10-16T06:59:36;6.95;;;2.70;;
22764;SDS011;11549;50.852;3.816;2022-10-16T07:02:05;4.75;;;2.63;;
22764;SDS011;11549;50.852;3.816;2022-10-16T07:04:35;5.45;;;2.72;;
22764;SDS011;11549;50.852;3.816;2022-10-16T07:07:03;5.72;;;2.70;;
22764;SDS011;11549;50.852;3.816;2022-10-16T07:09:34;8.40;;;2.85;;
22764;SDS011;11549;50.852;3.816;2022-10-16T07:12:03;6.18;;;2.90;;
22764;SDS011;11549;50.852;3.816;2022-10-16T07:14:32;5.50;;;2.92;;
22764;SDS011;11549;50.852;3.816;2022-10-16T07:17:00;7.93;;;3.25;;
22764;SDS011;11549;50.852;3.816;2022-10-16T07:19:29;6.18;;;3.20;;
22764;SDS011;11549;50.852;3.816;2022-10-16T07:22:00;7.63;;;3.53;;
22764;SDS011;11549;50.852;3.816;2022-10-16T07:24:29;7.28;;;2.78;;
22764;SDS011;11549;50.852;3.816;2022-10-16T07:26:57;7.43;;;2.95;;
22764;SDS011;11549;50.852;3.816;2022-10-16T07:29:26;7.88;;;2.65;;
22764;SDS011;11549;50.852;3.816;2022-10-16T07:31:54;6.75;;;2.08;;
22764;SDS011;11549;50.852;3.816;2022-10-16T07:34:22;6.03;;;2.25;;
22764;SDS011;11549;50.852;3.816;2022-10-16T07:36:53;4.95;;;1.98;;
22764;SDS011;11549;50.852;3.816;2022-10-16T07:39:22;6.60;;;2.30;;
22764;SDS011;11549;50.852;3.816;2022-10-16T07:41:50;5.85;;;2.10;;
22764;SDS011;11549;50.852;3.816;2022-10-16T07:44:18;4.47;;;1.90;;
22764;SDS011;11549;50.852;3.816;2022-10-16T07:46:47;3.72;;;1.85;;
22764;SDS011;11549;50.852;3.816;2022-10-16T07:49:15;5.60;;;1.60;;
22764;SDS011;11549;50.852;3.816;2022-10-16T07:51:43;5.43;;;1.58;;
22764;SDS011;11549;50.852;3.816;2022-10-16T07:54:13;4.30;;;1.42;;
22764;SDS011;11549;50.852;3.816;2022-10-16T07:56:41;5.03;;;1.55;;
22764;SDS011;11549;50.852;3.816;2022-10-16T07:59:09;7.00;;;1.83;;
22764;SDS011;11549;50.852;3.816;2022-10-16T08:01:38;6.25;;;1.67;;
22764;SDS011;11549;50.852;3.816;2022-10-16T08:04:08;5.72;;;1.63;;
22764;SDS011;11549;50.852;3.816;2022-10-16T08:06:38;6.50;;;1.77;;
22764;SDS011;11549;50.852;3.816;2022-10-16T08:09:07;4.22;;;1.60;;
22764;SDS011;11549;50.852;3.816;2022-10-16T08:11:37;6.15;;;1.55;;
22764;SDS011;11549;50.852;3.816;2022-10-16T08:14:05;4.93;;;1.55;;
22764;SDS011;11549;50.852;3.816;2022-10-16T08:16:34;6.57;;;1.60;;
22764;SDS011;11549;50.852;3.816;2022-10-16T08:19:02;5.68;;;1.50;;
22764;SDS011;11549;50.852;3.816;2022-10-16T08:21:30;5.30;;;1.55;;
22764;SDS011;11549;50.852;3.816;2022-10-16T08:23:59;4.45;;;1.40;;
22764;SDS011;11549;50.852;3.816;2022-10-16T08:26:27;4.20;;;1.58;;
22764;SDS011;11549;50.852;3.816;2022-10-16T08:28:57;5.38;;;1.60;;
22764;SDS011;11549;50.852;3.816;2022-10-16T08:31:25;4.70;;;1.85;;
22764;SDS011;11549;50.852;3.816;2022-10-16T08:33:53;3.72;;;1.15;;
22764;SDS011;11549;50.852;3.816;2022-10-16T08:36:22;5.03;;;1.80;;
22764;SDS011;11549;50.852;3.816;2022-10-16T08:38:50;4.93;;;1.75;;
22764;SDS011;11549;50.852;3.816;2022-10-16T08:41:27;4.43;;;1.42;;
22764;SDS011;11549;50.852;3.816;2022-10-16T08:47:02;6.38;;;1.50;;
22764;SDS011;11549;50.852;3.816;2022-10-16T08:49:41;6.88;;;1.73;;
22764;SDS011;11549;50.852;3.816;2022-10-16T08:52:17;7.63;;;1.60;;
22764;SDS011;11549;50.852;3.816;2022-10-16T08:54:46;4.63;;;1.70;;
22764;SDS011;11549;50.852;3.816;2022-10-16T08:57:19;5.93;;;2.00;;
22764;SDS011;11549;50.852;3.816;2022-10-16T08:59:51;4.18;;;1.50;;
22764;SDS011;11549;50.852;3.816;2022-10-16T09:02:23;4.53;;;1.40;;
22764;SDS011;11549;50.852;3.816;2022-10-16T09:05:01;5.63;;;1.70;;
22764;SDS011;11549;50.852;3.816;2022-10-16T09:07:43;4.40;;;1.40;;
22764;SDS011;11549;50.852;3.816;2022-10-16T09:10:20;4.97;;;1.40;;
22764;SDS011;11549;50.852;3.816;2022-10-16T09:13:00;4.72;;;1.40;;
22764;SDS011;11549;50.852;3.816;2022-10-16T09:15:39;5.35;;;1.60;;
22764;SDS011;11549;50.852;3.816;2022-10-16T09:18:16;5.95;;;1.58;;
22764;SDS011;11549;50.852;3.816;2022-10-16T09:20:58;5.88;;;1.70;;
22764;SDS011;11549;50.852;3.816;2022-10-16T09:23:33;4.88;;;1.40;;
22764;SDS011;11549;50.852;3.816;2022-10-16T09:26:03;8.13;;;1.83;;
22764;SDS011;11549;50.852;3.816;2022-10-16T09:28:36;7.03;;;1.60;;
22764;SDS011;11549;50.852;3.816;2022-10-16T09:31:07;7.53;;;1.50;;
22764;SDS011;11549;50.852;3.816;2022-10-16T09:33:42;6.03;;;1.40;;
22764;SDS011;11549;50.852;3.816;2022-10-16T09:36:14;3.60;;;1.30;;
22764;SDS011;11549;50.852;3.816;2022-10-16T09:38:43;8.38;;;1.58;;
22764;SDS011;11549;50.852;3.816;2022-10-16T09:41:13;5.05;;;1.48;;
22764;SDS011;11549;50.852;3.816;2022-10-16T09:43:49;5.63;;;1.40;;
22764;SDS011;11549;50.852;3.816;2022-10-16T09:46:24;5.03;;;1.27;;
22764;SDS011;11549;50.852;3.816;2022-10-16T09:48:56;7.70;;;1.70;;
22764;SDS011;11549;50.852;3.816;2022-10-16T09:51:31;7.93;;;1.38;;
22764;SDS011;11549;50.852;3.816;2022-10-16T09:54:13;8.75;;;1.30;;
22764;SDS011;11549;50.852;3.816;2022-10-16T09:56:42;8.10;;;1.50;;
22764;SDS011;11549;50.852;3.816;2022-10-16T09:59:16;5.60;;;1.20;;
22764;SDS011;11549;50.852;3.816;2022-10-16T10:01:48;5.05;;;1.15;;
22764;SDS011;11549;50.852;3.816;2022-10-16T10:04:21;4.72;;;1.15;;
22764;SDS011;11549;50.852;3.816;2022-10-16T10:07:03;4.80;;;1.25;;
22764;SDS011;11549;50.852;3.816;2022-10-16T10:09:32;4.60;;;1.42;;
22764;SDS011;11549;50.852;3.816;2022-10-16T10:12:04;5.43;;;1.33;;
22764;SDS011;11549;50.852;3.816;2022-10-16T10:14:37;5.82;;;1.20;;
22764;SDS011;11549;50.852;3.816;2022-10-16T10:17:13;7.45;;;1.55;;
22764;SDS011;11549;50.852;3.816;2022-10-16T10:19:48;6.43;;;1.40;;
22764;SDS011;11549;50.852;3.816;2022-10-16T10:25:15;3.95;;;1.27;;
22764;SDS011;11549;50.852;3.816;2022-10-16T10:30:54;7.65;;;1.70;;
22764;SDS011;11549;50.852;3.816;2022-10-16T10:33:31;4.90;;;1.40;;
22764;SDS011;11549;50.852;3.816;2022-10-16T10:36:12;7.65;;;1.80;;
22764;SDS011;11549;50.852;3.816;2022-10-16T10:38:49;4.03;;;1.20;;
22764;SDS011;11549;50.852;3.816;2022-10-16T10:44:13;6.80;;;1.50;;
22764;SDS011;11549;50.852;3.816;2022-10-16T10:46:50;4.78;;;1.33;;
22764;SDS011;11549;50.852;3.816;2022-10-16T10:52:07;6.75;;;1.70;;
22764;SDS011;11549;50.852;3.816;2022-10-16T10:55:02;8.20;;;1.50;;
22764;SDS011;11549;50.852;3.816;2022-10-16T10:57:41;6.85;;;1.63;;
22764;SDS011;11549;50.852;3.816;2022-10-16T11:00:21;5.40;;;1.25;;
22764;SDS011;11549;50.852;3.816;2022-10-16T11:02:59;6.15;;;1.40;;
22764;SDS011;11549;50.852;3.816;2022-10-16T11:05:42;9.47;;;1.73;;
22764;SDS011;11549;50.852;3.816;2022-10-16T11:08:16;5.65;;;1.63;;
22764;SDS011;11549;50.852;3.816;2022-10-16T11:10:50;5.15;;;1.42;;
22764;SDS011;11549;50.852;3.816;2022-10-16T11:13:26;6.97;;;1.40;;
22764;SDS011;11549;50.852;3.816;2022-10-16T11:16:00;7.90;;;1.70;;
22764;SDS011;11549;50.852;3.816;2022-10-16T11:18:38;5.65;;;1.40;;
22764;SDS011;11549;50.852;3.816;2022-10-16T11:21:14;5.88;;;1.38;;
22764;SDS011;11549;50.852;3.816;2022-10-16T11:23:48;7.88;;;1.20;;
22764;SDS011;11549;50.852;3.816;2022-10-16T11:26:23;6.72;;;1.60;;
22764;SDS011;11549;50.852;3.816;2022-10-16T11:28:58;5.57;;;1.00;;
22764;SDS011;11549;50.852;3.816;2022-10-16T11:31:29;7.85;;;1.38;;
22764;SDS011;11549;50.852;3.816;2022-10-16T11:34:05;7.28;;;1.10;;
22764;SDS011;11549;50.852;3.816;2022-10-16T11:36:45;6.80;;;1.45;;
22764;SDS011;11549;50.852;3.816;2022-10-16T11:39:19;6.65;;;1.20;;
22764;SDS011;11549;50.852;3.816;2022-10-16T11:41:50;4.75;;;0.93;;
22764;SDS011;11549;50.852;3.816;2022-10-16T11:44:27;4.60;;;1.00;;
22764;SDS011;11549;50.852;3.816;2022-10-16T11:47:25;4.35;;;1.10;;
22764;SDS011;11549;50.852;3.816;2022-10-16T11:50:22;2.95;;;0.80;;
22764;SDS011;11549;50.852;3.816;2022-10-16T11:52:55;4.60;;;1.00;;
22764;SDS011;11549;50.852;3.816;2022-10-16T11:55:29;7.35;;;1.20;;
22764;SDS011;11549;50.852;3.816;2022-10-16T11:58:12;6.05;;;1.00;;
22764;SDS011;11549;50.852;3.816;2022-10-16T12:00:50;5.88;;;1.23;;
22764;SDS011;11549;50.852;3.816;2022-10-16T12:03:26;5.38;;;1.00;;
22764;SDS011;11549;50.852;3.816;2022-10-16T12:06:02;4.38;;;1.00;;
22764;SDS011;11549;50.852;3.816;2022-10-16T12:08:48;3.75;;;0.80;;
22764;SDS011;11549;50.852;3.816;2022-10-16T12:11:22;5.32;;;1.05;;
22764;SDS011;11549;50.852;3.816;2022-10-16T12:17:24;4.33;;;1.00;;
22764;SDS011;11549;50.852;3.816;2022-10-16T12:19:58;3.10;;;0.80;;
22764;SDS011;11549;50.852;3.816;2022-10-16T12:22:29;5.63;;;1.35;;
22764;SDS011;11549;50.852;3.816;2022-10-16T12:25:03;4.22;;;1.15;;
22764;SDS011;11549;50.852;3.816;2022-10-16T12:27:32;4.05;;;1.35;;
22764;SDS011;11549;50.852;3.816;2022-10-16T12:30:04;3.20;;;1.00;;
22764;SDS011;11549;50.852;3.816;2022-10-16T12:32:35;4.05;;;1.30;;
22764;SDS011;11549;50.852;3.816;2022-10-16T12:35:17;4.00;;;1.20;;
22764;SDS011;11549;50.852;3.816;2022-10-16T12:37:48;5.68;;;1.20;;
22764;SDS011;11549;50.852;3.816;2022-10-16T12:40:25;4.78;;;1.40;;
22764;SDS011;11549;50.852;3.816;2022-10-16T12:42:56;4.80;;;1.30;;
22764;SDS011;11549;50.852;3.816;2022-10-16T12:45:26;4.43;;;1.30;;
22764;SDS011;11549;50.852;3.816;2022-10-16T12:47:57;3.90;;;1.20;;
22764;SDS011;11549;50.852;3.816;2022-10-16T12:50:32;3.85;;;1.40;;
22764;SDS011;11549;50.852;3.816;2022-10-16T12:53:02;3.28;;;1.17;;
22764;SDS011;11549;50.852;3.816;2022-10-16T12:55:42;3.60;;;1.20;;
22764;SDS011;11549;50.852;3.816;2022-10-16T12:58:33;3.35;;;1.13;;
22764;SDS011;11549;50.852;3.816;2022-10-16T13:01:15;2.95;;;1.00;;
22764;SDS011;11549;50.852;3.816;2022-10-16T13:04:00;4.60;;;1.48;;
22764;SDS011;11549;50.852;3.816;2022-10-16T13:06:39;3.03;;;1.10;;
22764;SDS011;11549;50.852;3.816;2022-10-16T13:09:19;7.18;;;1.40;;
22764;SDS011;11549;50.852;3.816;2022-10-16T13:12:12;4.90;;;1.30;;
22764;SDS011;11549;50.852;3.816;2022-10-16T13:17:49;2.97;;;1.10;;
22764;SDS011;11549;50.852;3.816;2022-10-16T13:20:26;3.45;;;1.08;;
22764;SDS011;11549;50.852;3.816;2022-10-16T13:23:05;3.22;;;1.10;;
22764;SDS011;11549;50.852;3.816;2022-10-16T13:25:45;3.80;;;0.80;;
22764;SDS011;11549;50.852;3.816;2022-10-16T13:28:29;2.85;;;1.15;;
22764;SDS011;11549;50.852;3.816;2022-10-16T13:31:00;3.83;;;1.25;;
22764;SDS011;11549;50.852;3.816;2022-10-16T13:33:36;5.47;;;1.10;;
22764;SDS011;11549;50.852;3.816;2022-10-16T13:36:17;4.10;;;1.00;;
22764;SDS011;11549;50.852;3.816;2022-10-16T13:38:48;2.63;;;1.00;;
22764;SDS011;11549;50.852;3.816;2022-10-16T13:41:27;4.53;;;1.25;;
22764;SDS011;11549;50.852;3.816;2022-10-16T13:43:56;4.03;;;1.00;;
22764;SDS011;11549;50.852;3.816;2022-10-16T13:46:25;3.35;;;1.20;;
22764;SDS011;11549;50.852;3.816;2022-10-16T13:48:58;4.38;;;1.02;;
22764;SDS011;11549;50.852;3.816;2022-10-16T13:51:31;3.78;;;0.60;;
22764;SDS011;11549;50.852;3.816;2022-10-16T13:54:03;1.65;;;0.50;;
22764;SDS011;11549;50.852;3.816;2022-10-16T13:56:32;3.75;;;0.80;;
22764;SDS011;11549;50.852;3.816;2022-10-16T13:59:03;2.50;;;0.52;;
22764;SDS011;11549;50.852;3.816;2022-10-16T14:01:41;3.40;;;0.60;;
22764;SDS011;11549;50.852;3.816;2022-10-16T14:04:11;2.92;;;0.63;;
22764;SDS011;11549;50.852;3.816;2022-10-16T14:06:42;2.60;;;0.90;;
22764;SDS011;11549;50.852;3.816;2022-10-16T14:09:14;3.20;;;0.77;;
22764;SDS011;11549;50.852;3.816;2022-10-16T14:11:49;2.28;;;0.90;;
22764;SDS011;11549;50.852;3.816;2022-10-16T14:14:22;4.45;;;1.10;;
22764;SDS011;11549;50.852;3.816;2022-10-16T14:16:50;4.25;;;1.00;;
22764;SDS011;11549;50.852;3.816;2022-10-16T14:19:20;4.40;;;1.17;;
22764;SDS011;11549;50.852;3.816;2022-10-16T14:21:50;2.97;;;1.13;;
22764;SDS011;11549;50.852;3.816;2022-10-16T14:24:25;3.35;;;1.20;;
22764;SDS011;11549;50.852;3.816;2022-10-16T14:26:59;4.00;;;1.33;;
22764;SDS011;11549;50.852;3.816;2022-10-16T14:29:29;4.82;;;1.38;;
22764;SDS011;11549;50.852;3.816;2022-10-16T14:31:58;4.15;;;1.40;;
22764;SDS011;11549;50.852;3.816;2022-10-16T14:34:29;4.18;;;1.30;;
22764;SDS011;11549;50.852;3.816;2022-10-16T14:37:00;4.22;;;1.30;;
22764;SDS011;11549;50.852;3.816;2022-10-16T14:39:34;5.25;;;1.30;;
22764;SDS011;11549;50.852;3.816;2022-10-16T14:42:03;3.33;;;1.10;;
22764;SDS011;11549;50.852;3.816;2022-10-16T14:44:33;7.32;;;2.45;;
22764;SDS011;11549;50.852;3.816;2022-10-16T14:47:08;6.88;;;2.78;;
22764;SDS011;11549;50.852;3.816;2022-10-16T14:49:40;10.93;;;2.90;;
22764;SDS011;11549;50.852;3.816;2022-10-16T14:52:09;5.75;;;2.47;;
22764;SDS011;11549;50.852;3.816;2022-10-16T14:54:39;6.55;;;2.00;;
22764;SDS011;11549;50.852;3.816;2022-10-16T14:57:14;3.15;;;1.30;;
22764;SDS011;11549;50.852;3.816;2022-10-16T14:59:46;5.75;;;1.65;;
22764;SDS011;11549;50.852;3.816;2022-10-16T15:02:18;6.68;;;1.92;;
22764;SDS011;11549;50.852;3.816;2022-10-16T15:04:52;4.25;;;1.55;;
22764;SDS011;11549;50.852;3.816;2022-10-16T15:07:30;5.07;;;1.50;;
22764;SDS011;11549;50.852;3.816;2022-10-16T15:09:58;6.03;;;1.60;;
22764;SDS011;11549;50.852;3.816;2022-10-16T15:12:26;3.92;;;1.50;;
22764;SDS011;11549;50.852;3.816;2022-10-16T15:14:56;5.68;;;1.50;;
22764;SDS011;11549;50.852;3.816;2022-10-16T15:17:24;3.92;;;1.60;;
22764;SDS011;11549;50.852;3.816;2022-10-16T15:19:53;5.57;;;1.45;;
22764;SDS011;11549;50.852;3.816;2022-10-16T15:22:22;5.15;;;1.52;;
22764;SDS011;11549;50.852;3.816;2022-10-16T15:24:50;4.50;;;1.42;;
22764;SDS011;11549;50.852;3.816;2022-10-16T15:27:18;5.55;;;1.42;;
22764;SDS011;11549;50.852;3.816;2022-10-16T15:29:46;5.20;;;1.38;;
22764;SDS011;11549;50.852;3.816;2022-10-16T15:32:16;3.60;;;1.40;;
22764;SDS011;11549;50.852;3.816;2022-10-16T15:34:45;5.60;;;1.55;;
22764;SDS011;11549;50.852;3.816;2022-10-16T15:37:13;4.40;;;1.17;;
22764;SDS011;11549;50.852;3.816;2022-10-16T15:39:41;4.50;;;1.20;;